Terminal Aerodrome Forecast
Issued by NWS Wilmington, OH

Current Version | Previous Version | Graphics & Text | Print | Product List | Glossary On
Versions: 1 2 3 4 5 6 7 8 9 10 11 12 13 14 15 16 17 18 19 20 21 22 23 24 25 26 27
000
FTUS41 KILN 192300
TAFCMH
TAF
KCMH 192332Z 2000/2024 07004KT P6SM SCT250
     FM201000 16007KT P6SM BKN050
     FM201400 20012G20KT P6SM BKN050
     FM202100 21010KT P6SM SCT050=

USA.gov is the U.S. government's official web portal to all federal, state and local government web resources and services.